createdAt,value
2023-01-17T00:02:23.619Z,23.59
2023-01-17T00:05:10.794Z,23.56
2023-01-17T00:07:57.820Z,23.54
2023-01-17T00:10:28.356Z,23.49
2023-01-17T00:13:02.056Z,23.47
2023-01-17T00:15:31.860Z,23.48
2023-01-17T00:18:00.358Z,23.45
2023-01-17T00:20:49.606Z,23.41
2023-01-17T00:23:43.001Z,23.42
2023-01-17T00:26:15.028Z,23.42
2023-01-17T00:28:44.488Z,23.38
2023-01-17T00:31:14.304Z,23.36
2023-01-17T00:33:42.958Z,23.36
2023-01-17T00:36:12.139Z,23.34
2023-01-17T00:38:41.127Z,23.32
2023-01-17T00:41:14.832Z,23.32
2023-01-17T00:44:01.646Z,23.33
2023-01-17T00:46:48.717Z,23.33
2023-01-17T00:49:35.782Z,23.29
2023-01-17T00:52:22.903Z,23.27
2023-01-17T00:55:10.239Z,23.25
2023-01-17T00:57:57.448Z,23.22
2023-01-17T01:00:44.593Z,23.19
2023-01-17T01:03:32.604Z,23.20
2023-01-17T01:06:24.026Z,23.18
2023-01-17T01:09:11.148Z,23.21
2023-01-17T01:11:58.366Z,23.16
2023-01-17T01:14:45.281Z,23.13
2023-01-17T01:17:32.602Z,23.11
2023-01-17T01:20:19.414Z,23.11
2023-01-17T01:23:06.748Z,23.09
2023-01-17T01:25:54.881Z,23.07
2023-01-17T01:28:42.100Z,23.09
2023-01-17T01:31:29.158Z,23.06
2023-01-17T01:33:57.712Z,23.04
2023-01-17T01:36:26.188Z,23.01
2023-01-17T01:38:54.875Z,23.00
2023-01-17T01:41:23.559Z,22.98
2023-01-17T01:43:54.125Z,22.97
2023-01-17T01:46:39.054Z,22.97
2023-01-17T01:49:22.388Z,22.98
2023-01-17T01:52:02.245Z,22.98
2023-01-17T01:54:36.456Z,22.96
2023-01-17T01:57:07.966Z,22.98
2023-01-17T01:59:40.376Z,22.97
2023-01-17T02:02:09.163Z,22.96
2023-01-17T02:04:38.156Z,22.93
2023-01-17T02:07:11.884Z,22.91
2023-01-17T02:09:40.240Z,22.92
2023-01-17T02:12:09.544Z,22.90
2023-01-17T02:14:37.817Z,22.86
2023-01-17T02:17:51.568Z,22.85
2023-01-17T02:20:43.801Z,23.04
2023-01-17T02:23:21.000Z,22.96
2023-01-17T02:26:25.724Z,22.86
2023-01-17T02:29:31.374Z,22.96
2023-01-17T02:32:11.838Z,22.88
2023-01-17T02:35:01.717Z,22.84
2023-01-17T02:38:06.658Z,22.82
2023-01-17T02:40:39.543Z,22.98
2023-01-17T02:43:16.724Z,22.92
2023-01-17T02:45:46.254Z,22.84
2023-01-17T02:48:17.797Z,22.78
2023-01-17T02:51:25.183Z,22.76
2023-01-17T02:54:18.037Z,22.88
2023-01-17T02:57:30.135Z,22.92
2023-01-17T03:00:07.386Z,23.10
2023-01-17T03:03:07.853Z,22.95
2023-01-17T03:05:44.528Z,23.01
2023-01-17T03:08:13.837Z,22.90
2023-01-17T03:10:42.938Z,22.81
2023-01-17T03:13:11.309Z,22.76
2023-01-17T03:15:41.132Z,22.70
2023-01-17T03:18:15.508Z,22.67
2023-01-17T03:20:43.831Z,22.67
2023-01-17T03:23:12.299Z,22.66
2023-01-17T03:25:40.781Z,22.62
2023-01-17T03:28:09.163Z,22.60
2023-01-17T03:30:37.657Z,22.57
2023-01-17T03:33:06.124Z,22.57
2023-01-17T03:35:34.614Z,22.56
2023-01-17T03:38:03.096Z,22.55
2023-01-17T03:40:31.475Z,22.54
2023-01-17T03:42:59.845Z,22.53
2023-01-17T03:45:28.330Z,22.51
2023-01-17T03:47:58.158Z,22.49
2023-01-17T03:50:28.053Z,22.48
2023-01-17T03:52:56.229Z,22.49
2023-01-17T03:55:24.709Z,22.47
2023-01-17T03:57:53.241Z,22.46
2023-01-17T04:00:22.908Z,22.46
2023-01-17T04:02:51.216Z,22.45
2023-01-17T04:05:19.658Z,22.46
2023-01-17T04:07:48.143Z,22.45
2023-01-17T04:10:17.546Z,22.42
2023-01-17T04:12:45.828Z,22.42
2023-01-17T04:15:14.505Z,22.40
2023-01-17T04:17:42.896Z,22.40
2023-01-17T04:20:17.632Z,22.40
2023-01-17T04:22:46.000Z,22.42
2023-01-17T04:25:14.683Z,22.41
2023-01-17T04:27:43.058Z,22.40
2023-01-17T04:30:12.337Z,22.37
2023-01-17T04:32:40.742Z,22.37
2023-01-17T04:35:09.793Z,22.36
2023-01-17T04:37:38.423Z,22.35
2023-01-17T04:40:07.576Z,22.35
2023-01-17T04:42:36.007Z,22.34
2023-01-17T04:45:05.479Z,22.33
2023-01-17T04:47:34.701Z,22.32
2023-01-17T04:50:03.287Z,22.32
2023-01-17T04:52:31.770Z,22.31
2023-01-17T04:55:00.353Z,22.30
2023-01-17T04:57:28.735Z,22.30
2023-01-17T04:59:57.221Z,22.29
2023-01-17T05:02:25.618Z,22.29
2023-01-17T05:04:54.182Z,22.30
2023-01-17T05:07:22.660Z,22.29
2023-01-17T05:09:51.142Z,22.29
2023-01-17T05:12:19.618Z,22.27
2023-01-17T05:14:48.040Z,22.26
2023-01-17T05:17:16.491Z,22.25
2023-01-17T05:19:45.172Z,22.25
2023-01-17T05:22:16.863Z,22.25
2023-01-17T05:24:46.645Z,22.26
2023-01-17T05:27:15.532Z,22.26
2023-01-17T05:29:43.910Z,22.26
2023-01-17T05:32:12.405Z,22.24
2023-01-17T05:34:40.775Z,22.23
2023-01-17T05:37:09.154Z,22.21
2023-01-17T05:39:37.636Z,22.20
2023-01-17T05:42:06.424Z,22.19
2023-01-17T05:44:34.901Z,22.18
2023-01-17T05:47:03.381Z,22.18
2023-01-17T05:49:31.976Z,22.18
2023-01-17T05:52:00.250Z,22.17
2023-01-17T05:54:28.731Z,22.17
2023-01-17T05:56:57.107Z,22.15
2023-01-17T05:59:36.524Z,22.16
2023-01-17T06:02:06.054Z,22.23
2023-01-17T06:04:34.672Z,22.21
2023-01-17T06:07:03.115Z,22.17
2023-01-17T06:09:31.598Z,22.14
2023-01-17T06:12:00.113Z,22.12
2023-01-17T06:14:28.670Z,22.12
2023-01-17T06:16:57.046Z,22.10
2023-01-17T06:19:25.628Z,22.16
2023-01-17T06:21:54.008Z,22.20
2023-01-17T06:24:22.593Z,22.22
2023-01-17T06:26:51.179Z,22.21
2023-01-17T06:29:19.654Z,22.19
2023-01-17T06:31:48.037Z,22.20
2023-01-17T06:34:16.540Z,22.20
2023-01-17T06:36:44.914Z,22.21
2023-01-17T06:39:15.152Z,22.18
2023-01-17T06:41:43.700Z,22.18
2023-01-17T06:44:12.402Z,22.18
2023-01-17T06:46:41.244Z,22.18
2023-01-17T06:49:09.969Z,22.19
2023-01-17T06:51:38.269Z,22.20
2023-01-17T06:54:06.726Z,22.18
2023-01-17T06:56:36.547Z,22.19
2023-01-17T06:59:05.541Z,22.19
2023-01-17T07:01:34.011Z,22.19
2023-01-17T07:04:04.755Z,22.18
2023-01-17T07:06:33.134Z,22.20
2023-01-17T07:09:01.709Z,22.20
2023-01-17T07:11:30.116Z,22.20
2023-01-17T07:13:58.580Z,22.19
2023-01-17T07:16:27.089Z,22.19
2023-01-17T07:18:57.374Z,22.21
2023-01-17T07:21:25.664Z,22.23
2023-01-17T07:23:54.194Z,22.26
2023-01-17T07:26:22.624Z,22.27
2023-01-17T07:28:51.106Z,22.30
2023-01-17T07:31:19.619Z,22.32
2023-01-17T07:33:48.168Z,22.33
2023-01-17T07:36:16.559Z,22.34
2023-01-17T07:38:47.249Z,22.34
2023-01-17T07:41:15.768Z,22.36
2023-01-17T07:43:44.147Z,22.37
2023-01-17T07:46:15.536Z,22.39
2023-01-17T07:48:44.281Z,22.39
2023-01-17T07:51:12.766Z,22.39
2023-01-17T07:53:41.143Z,22.38
2023-01-17T07:56:09.732Z,22.38
2023-01-17T07:58:38.721Z,22.38
2023-01-17T08:01:10.021Z,22.39
2023-01-17T08:03:41.892Z,22.38
2023-01-17T08:06:24.658Z,22.39
2023-01-17T08:08:56.740Z,22.40
2023-01-17T08:11:26.016Z,22.38
2023-01-17T08:13:57.874Z,22.41
2023-01-17T08:16:28.862Z,22.40
2023-01-17T08:18:57.736Z,22.39
2023-01-17T08:21:26.227Z,22.33
2023-01-17T08:23:54.664Z,22.32
2023-01-17T08:26:23.676Z,22.31
2023-01-17T08:28:57.773Z,22.31
2023-01-17T08:31:26.511Z,22.33
2023-01-17T08:33:54.941Z,22.34
2023-01-17T08:36:25.988Z,22.35
2023-01-17T08:38:55.286Z,22.37
2023-01-17T08:41:24.991Z,22.41
2023-01-17T08:43:53.167Z,22.45
2023-01-17T08:46:21.752Z,22.47
2023-01-17T08:48:56.751Z,22.49
2023-01-17T08:51:28.647Z,22.54
2023-01-17T08:53:57.540Z,22.56
2023-01-17T08:56:27.258Z,22.53
2023-01-17T08:58:55.737Z,22.50
2023-01-17T09:01:24.598Z,22.47
2023-01-17T09:03:53.203Z,22.48
2023-01-17T09:06:21.795Z,22.48
2023-01-17T09:08:52.429Z,22.47
2023-01-17T09:11:20.806Z,22.47
2023-01-17T09:13:49.192Z,22.44
2023-01-17T09:16:17.777Z,22.46
2023-01-17T09:18:46.253Z,22.46
2023-01-17T09:21:17.423Z,22.44
2023-01-17T09:23:45.985Z,22.47
2023-01-17T09:26:23.573Z,22.47
2023-01-17T09:28:52.465Z,22.51
2023-01-17T09:31:22.093Z,22.53
2023-01-17T09:33:51.699Z,22.53
2023-01-17T09:36:20.579Z,22.54
2023-01-17T09:38:49.078Z,22.56
2023-01-17T09:41:33.217Z,22.59
2023-01-17T09:44:03.432Z,22.70
2023-01-17T09:46:41.844Z,22.76
2023-01-17T09:49:44.419Z,22.87
2023-01-17T09:52:15.920Z,23.00
2023-01-17T09:54:46.605Z,22.94
2023-01-17T09:57:26.966Z,22.96
2023-01-17T10:00:03.229Z,22.96
2023-01-17T10:02:54.418Z,22.97
2023-01-17T10:05:45.455Z,23.06
2023-01-17T10:08:41.383Z,23.10
2023-01-17T10:11:25.222Z,23.11
2023-01-17T10:14:19.124Z,23.09
2023-01-17T10:17:02.846Z,23.21
2023-01-17T10:20:04.599Z,23.20
2023-01-17T10:23:01.037Z,23.33
2023-01-17T10:25:37.943Z,23.37
2023-01-17T10:28:18.278Z,23.31
2023-01-17T10:30:50.276Z,23.30
2023-01-17T10:33:21.809Z,23.30
2023-01-17T10:36:04.425Z,23.34
2023-01-17T10:38:44.931Z,23.41
2023-01-17T10:41:22.194Z,23.45
2023-01-17T10:44:16.957Z,23.49
2023-01-17T10:46:55.561Z,23.51
2023-01-17T10:49:25.698Z,23.48
2023-01-17T10:52:06.261Z,23.45
2023-01-17T10:55:05.448Z,23.46
2023-01-17T10:57:42.964Z,23.49
2023-01-17T11:00:35.098Z,23.52
2023-01-17T11:03:04.182Z,23.57
2023-01-17T11:05:34.069Z,23.51
2023-01-17T11:08:09.867Z,23.49
2023-01-17T11:10:42.462Z,23.49
2023-01-17T11:13:23.525Z,23.56
2023-01-17T11:15:58.160Z,23.53
2023-01-17T11:18:32.145Z,23.48
2023-01-17T11:21:23.977Z,23.46
2023-01-17T11:23:58.995Z,23.48
2023-01-17T11:26:30.205Z,23.42
2023-01-17T11:29:35.995Z,23.39
2023-01-17T11:32:23.544Z,23.39
2023-01-17T11:35:10.055Z,23.31
2023-01-17T11:37:39.178Z,23.25
2023-01-17T11:40:24.628Z,23.22
2023-01-17T11:43:18.970Z,23.33
2023-01-17T11:46:09.014Z,23.43
2023-01-17T11:48:39.327Z,23.48
2023-01-17T11:51:35.872Z,23.40
2023-01-17T11:54:30.461Z,23.55
2023-01-17T11:57:00.483Z,23.57
2023-01-17T11:59:37.905Z,23.71
2023-01-17T12:02:38.598Z,24.58
2023-01-17T12:05:29.748Z,25.27
2023-01-17T12:08:22.776Z,25.54
2023-01-17T12:11:28.952Z,24.81
2023-01-17T12:14:04.485Z,24.16
2023-01-17T12:16:50.888Z,23.85
2023-01-17T12:19:47.121Z,23.65
2023-01-17T12:22:35.364Z,23.57
2023-01-17T12:25:15.337Z,23.55
2023-01-17T12:28:14.726Z,23.46
2023-01-17T12:31:20.571Z,23.45
2023-01-17T12:33:57.370Z,23.32
2023-01-17T12:36:42.840Z,23.27
2023-01-17T12:39:14.669Z,23.30
2023-01-17T12:42:00.797Z,23.24
2023-01-17T12:45:05.331Z,23.20
2023-01-17T12:47:36.670Z,23.37
2023-01-17T12:50:05.053Z,23.24
2023-01-17T12:52:50.981Z,23.17
2023-01-17T12:55:28.028Z,23.17
2023-01-17T12:58:01.850Z,23.18
2023-01-17T13:00:31.902Z,23.14
2023-01-17T13:03:40.887Z,23.10
2023-01-17T13:06:25.298Z,23.32
2023-01-17T13:08:57.200Z,23.32
2023-01-17T13:11:34.886Z,23.24
2023-01-17T13:14:03.279Z,23.20
2023-01-17T13:17:13.556Z,23.14
2023-01-17T13:19:44.886Z,23.30
2023-01-17T13:22:21.850Z,23.16
2023-01-17T13:25:09.013Z,23.18
2023-01-17T13:27:53.448Z,23.19
2023-01-17T13:31:06.770Z,23.12
2023-01-17T13:33:56.655Z,23.21
2023-01-17T13:36:38.249Z,23.17
2023-01-17T13:39:09.704Z,23.13
2023-01-17T13:41:46.481Z,23.05
2023-01-17T13:44:24.995Z,23.04
2023-01-17T13:47:01.371Z,23.04
2023-01-17T13:49:29.635Z,23.00
2023-01-17T13:52:27.714Z,23.03
2023-01-17T13:55:01.418Z,23.09
2023-01-17T13:57:44.045Z,23.04
2023-01-17T14:00:16.121Z,23.00
2023-01-17T14:02:46.352Z,22.96
2023-01-17T14:05:30.267Z,22.93
2023-01-17T14:08:27.516Z,22.91
2023-01-17T14:11:06.886Z,23.10
2023-01-17T14:13:38.717Z,23.18
2023-01-17T14:16:33.670Z,23.23
2023-01-17T14:19:02.403Z,23.47
2023-01-17T14:21:35.915Z,23.58
2023-01-17T14:24:17.190Z,23.68
2023-01-17T14:26:57.380Z,23.88
2023-01-17T14:29:44.878Z,24.09
2023-01-17T14:32:19.216Z,24.24
2023-01-17T14:34:49.628Z,24.43
2023-01-17T14:37:33.663Z,24.61
2023-01-17T14:40:02.349Z,24.78
2023-01-17T14:42:31.667Z,24.91
2023-01-17T14:45:08.833Z,25.01
2023-01-17T14:47:39.784Z,25.11
2023-01-17T14:50:12.376Z,25.18
2023-01-17T14:52:40.735Z,25.25
2023-01-17T14:55:16.571Z,25.30
2023-01-17T14:57:56.231Z,25.36
2023-01-17T15:00:29.299Z,25.44
2023-01-17T15:02:59.799Z,25.44
2023-01-17T15:05:29.935Z,25.42
2023-01-17T15:07:58.773Z,25.39
2023-01-17T15:10:32.373Z,25.37
2023-01-17T15:13:07.963Z,25.34
2023-01-17T15:15:39.342Z,25.36
2023-01-17T15:18:13.791Z,25.34
2023-01-17T15:20:46.170Z,25.31
2023-01-17T15:23:20.060Z,25.33
2023-01-17T15:25:50.975Z,25.39
2023-01-17T15:28:20.005Z,25.47
2023-01-17T15:31:10.124Z,25.56
2023-01-17T15:33:41.230Z,25.66
2023-01-17T15:36:22.210Z,25.77
2023-01-17T15:39:00.482Z,25.92
2023-01-17T15:41:33.080Z,25.99
2023-01-17T15:44:01.990Z,26.01
2023-01-17T15:46:34.190Z,26.01
2023-01-17T15:49:07.998Z,26.02
2023-01-17T15:51:39.072Z,26.04
2023-01-17T15:54:34.616Z,26.02
2023-01-17T15:57:24.506Z,26.01
2023-01-17T16:00:08.821Z,26.14
2023-01-17T16:02:47.216Z,26.05
2023-01-17T16:05:25.175Z,26.01
2023-01-17T16:08:16.610Z,25.91
2023-01-17T16:10:45.383Z,25.99
2023-01-17T16:13:13.917Z,25.88
2023-01-17T16:15:42.605Z,25.77
2023-01-17T16:18:21.917Z,25.70
2023-01-17T16:21:01.334Z,25.66
2023-01-17T16:23:29.611Z,25.65
2023-01-17T16:25:58.095Z,25.61
2023-01-17T16:28:26.484Z,25.63
2023-01-17T16:30:54.972Z,25.69
2023-01-17T16:33:23.567Z,25.75
2023-01-17T16:35:54.469Z,25.76
2023-01-17T16:38:22.846Z,25.83
2023-01-17T16:40:51.328Z,25.88
2023-01-17T16:43:20.534Z,25.91
2023-01-17T16:45:52.877Z,25.93
2023-01-17T16:48:21.998Z,25.95
2023-01-17T16:50:52.579Z,25.97
2023-01-17T16:53:24.795Z,25.96
2023-01-17T16:55:57.184Z,25.98
2023-01-17T16:58:25.967Z,25.95
2023-01-17T17:00:56.124Z,25.88
2023-01-17T17:03:24.786Z,25.82
2023-01-17T17:06:00.735Z,25.72
2023-01-17T17:08:29.819Z,25.65
2023-01-17T17:11:18.789Z,25.55
2023-01-17T17:13:49.227Z,25.49
2023-01-17T17:16:27.755Z,25.45
2023-01-17T17:18:58.482Z,25.44
2023-01-17T17:21:27.962Z,25.41
2023-01-17T17:23:58.333Z,25.37
2023-01-17T17:26:35.692Z,25.34
2023-01-17T17:29:05.601Z,25.35
2023-01-17T17:31:33.993Z,25.35
2023-01-17T17:34:03.960Z,25.40
2023-01-17T17:36:32.391Z,25.55
2023-01-17T17:39:03.705Z,25.64
2023-01-17T17:41:34.355Z,25.72
2023-01-17T17:44:04.144Z,25.81
2023-01-17T17:46:34.032Z,25.86
2023-01-17T17:49:02.978Z,25.90
2023-01-17T17:51:37.006Z,25.93
2023-01-17T17:54:10.667Z,25.97
2023-01-17T17:56:40.150Z,25.96
2023-01-17T17:59:09.864Z,26.03
2023-01-17T18:01:38.613Z,26.02
2023-01-17T18:04:08.191Z,26.04
2023-01-17T18:06:38.847Z,26.01
2023-01-17T18:09:08.961Z,25.98
2023-01-17T18:11:39.843Z,25.97
2023-01-17T18:14:12.685Z,25.97
2023-01-17T18:16:43.373Z,25.92
2023-01-17T18:19:17.329Z,25.88
2023-01-17T18:21:46.327Z,25.84
2023-01-17T18:24:16.720Z,25.81
2023-01-17T18:26:47.487Z,25.81
2023-01-17T18:29:18.137Z,25.76
2023-01-17T18:31:47.620Z,25.76
2023-01-17T18:34:18.562Z,25.67
2023-01-17T18:36:47.138Z,25.62
2023-01-17T18:39:24.589Z,25.56
2023-01-17T18:41:54.176Z,25.52
2023-01-17T18:44:22.920Z,25.48
2023-01-17T18:46:53.841Z,25.42
2023-01-17T18:49:22.341Z,25.34
2023-01-17T18:51:51.461Z,25.28
2023-01-17T18:54:20.632Z,25.22
2023-01-17T18:56:48.937Z,25.17
2023-01-17T18:59:18.729Z,25.11
2023-01-17T19:01:47.477Z,25.03
2023-01-17T19:04:17.467Z,25.01
2023-01-17T19:06:47.767Z,25.01
2023-01-17T19:09:17.203Z,24.98
2023-01-17T19:11:47.698Z,24.96
2023-01-17T19:14:16.482Z,24.95
2023-01-17T19:16:45.476Z,24.94
2023-01-17T19:19:15.704Z,24.95
2023-01-17T19:21:44.130Z,24.94
2023-01-17T19:24:13.570Z,24.91
2023-01-17T19:26:43.081Z,24.87
2023-01-17T19:29:12.437Z,24.84
2023-01-17T19:31:44.661Z,24.82
2023-01-17T19:34:19.133Z,24.80
2023-01-17T19:36:47.969Z,24.78
2023-01-17T19:39:16.457Z,24.74
2023-01-17T19:41:45.716Z,24.71
2023-01-17T19:44:14.973Z,24.67
2023-01-17T19:46:44.465Z,24.66
2023-01-17T19:49:12.947Z,24.63
2023-01-17T19:51:41.523Z,24.62
2023-01-17T19:54:10.336Z,24.58
2023-01-17T19:56:38.896Z,24.55
2023-01-17T19:59:07.515Z,24.54
2023-01-17T20:01:36.423Z,24.51
2023-01-17T20:04:05.378Z,24.46
2023-01-17T20:06:36.165Z,24.46
2023-01-17T20:09:07.818Z,25.44
2023-01-17T20:11:36.162Z,26.03
2023-01-17T20:14:07.678Z,25.68
2023-01-17T20:16:37.190Z,26.17
2023-01-17T20:19:05.994Z,26.54
2023-01-17T20:21:34.785Z,26.71
2023-01-17T20:24:06.224Z,25.82
2023-01-17T20:26:35.526Z,25.29
2023-01-17T20:29:10.677Z,25.00
2023-01-17T20:31:41.268Z,24.84
2023-01-17T20:34:11.844Z,24.71
2023-01-17T20:36:42.230Z,24.59
2023-01-17T20:39:13.152Z,24.50
2023-01-17T20:41:43.197Z,24.43
2023-01-17T20:44:14.141Z,24.38
2023-01-17T20:46:43.143Z,24.35
2023-01-17T20:49:19.533Z,24.32
2023-01-17T20:51:48.213Z,24.27
2023-01-17T20:54:18.728Z,24.22
2023-01-17T20:56:48.046Z,24.18
2023-01-17T20:59:18.909Z,24.15
2023-01-17T21:01:48.186Z,24.13
2023-01-17T21:04:17.156Z,24.09
2023-01-17T21:06:45.538Z,24.07
2023-01-17T21:09:15.660Z,24.03
2023-01-17T21:11:44.143Z,24.01
2023-01-17T21:14:12.420Z,23.98
2023-01-17T21:16:40.953Z,23.93
2023-01-17T21:19:12.308Z,23.90
2023-01-17T21:21:40.841Z,23.88
2023-01-17T21:24:09.423Z,23.88
2023-01-17T21:26:39.226Z,23.83
2023-01-17T21:29:08.635Z,23.80
2023-01-17T21:31:38.954Z,23.77
2023-01-17T21:34:09.318Z,23.75
2023-01-17T21:36:40.055Z,23.72
2023-01-17T21:39:19.159Z,23.70
2023-01-17T21:41:49.822Z,23.75
2023-01-17T21:44:22.787Z,23.71
2023-01-17T21:46:56.528Z,23.66
2023-01-17T21:49:25.027Z,23.63
2023-01-17T21:51:53.689Z,23.59
2023-01-17T21:54:44.777Z,23.56
2023-01-17T21:57:33.414Z,23.56
2023-01-17T22:00:02.242Z,23.52
2023-01-17T22:02:30.680Z,23.47
2023-01-17T22:04:59.173Z,23.45
2023-01-17T22:07:29.293Z,23.42
2023-01-17T22:09:57.574Z,23.41
2023-01-17T22:12:26.035Z,23.40
2023-01-17T22:14:54.725Z,23.39
2023-01-17T22:17:23.226Z,23.36
2023-01-17T22:19:51.696Z,23.33
2023-01-17T22:22:20.066Z,23.30
2023-01-17T22:24:48.565Z,23.28
2023-01-17T22:27:16.927Z,23.25
2023-01-17T22:29:45.314Z,23.23
2023-01-17T22:32:13.801Z,23.27
2023-01-17T22:34:42.171Z,23.27
2023-01-17T22:37:10.758Z,23.26
2023-01-17T22:39:39.939Z,23.23
2023-01-17T22:42:08.739Z,23.21
2023-01-17T22:44:37.119Z,23.22
2023-01-17T22:47:06.009Z,23.21
2023-01-17T22:49:34.395Z,23.18
2023-01-17T22:52:02.870Z,23.16
2023-01-17T22:54:31.359Z,23.14
2023-01-17T22:57:00.131Z,23.15
2023-01-17T22:59:28.620Z,23.15
2023-01-17T23:01:57.002Z,23.13
2023-01-17T23:04:26.206Z,23.15
2023-01-17T23:06:54.789Z,23.16
2023-01-17T23:09:23.064Z,23.13
2023-01-17T23:11:54.380Z,23.11
2023-01-17T23:14:27.301Z,23.08
2023-01-17T23:17:16.575Z,23.05
2023-01-17T23:19:49.759Z,23.14
2023-01-17T23:22:21.237Z,23.21
2023-01-17T23:25:08.678Z,24.17
2023-01-17T23:28:01.477Z,24.90
2023-01-17T23:30:40.804Z,25.33
2023-01-17T23:33:15.149Z,25.49
2023-01-17T23:35:45.402Z,25.62
2023-01-17T23:38:29.566Z,24.72
2023-01-17T23:41:27.725Z,24.17
2023-01-17T23:43:58.529Z,23.87
2023-01-17T23:46:27.680Z,23.64
2023-01-17T23:48:56.211Z,23.57
2023-01-17T23:51:24.493Z,23.51
2023-01-17T23:53:57.655Z,23.38
2023-01-17T23:56:26.176Z,23.31
2023-01-17T23:58:54.641Z,23.23
